Historique des mesures à Cassis (13260), France
Quotidien Résumé Janvier 18, 2018 Unités:  US    Métrique   Métrique/US
« Précédent (Jour)
Suivant (Jour) »
Quotidien Hebdomadaire Mensuel Annuel Période au choix
  Maximum: Minimum: Moyenne:
Température: 32 °F 46.8 °F 49.8 °F
Point de rosée: 32 °F 28.6 °F 37.9 °F
Humidité: Humidity % 47 % 60 %
Vitesse du vent: WindSpeedKMH mph 0.0 mph 5.9 mph
Rafales: WindSpeedGustKMH mph - -
Vent:- - WSW
Pression: 0 in 29.9 in -
Précipitations: 0 in    
Historical Graphs
 
 
Mesures pour : Janvier 18, 2018
Heure Temperature Point de rosée Pression Vent Vitesse du vent Rafales Humidité Pluie (par heure) Conditions
32 °F 32 °F 0 in Calm     Humidity % 0 in SoftwareType W/m2
00:12 48 °F 28.6 °F 30.1 in NW 16.3 mph 16.9 mph 47 % 0 in open2300-1.11 W/m2
01:12 47.1 °F 29.5 °F 30.1 in NNE 5.5 mph 11.6 mph 50 % 0 in open2300-1.11 W/m2
02:12 46.8 °F 30 °F 30.1 in NW 3.2 mph 11.6 mph 52 % 0 in open2300-1.11 W/m2
03:12 46.9 °F 29.7 °F 30.1 in North 4.7 mph 4.7 mph 51 % 0 in open2300-1.11 W/m2
04:12 47.8 °F 29.5 °F 30.1 in NW 15.1 mph 15.1 mph 49 % 0 in open2300-1.11 W/m2
05:12 46.9 °F 30 °F 30.1 in West 6.8 mph 7.6 mph 52 % 0 in open2300-1.11 W/m2
06:12 47.5 °F 33.4 °F 30.1 in NW 2.6 mph 4.7 mph 58 % 0 in open2300-1.11 W/m2
07:12 47.1 °F 34 °F 30.1 in WNW 4.7 mph 7.9 mph 60 % 0 in open2300-1.11 W/m2
08:12 46.8 °F 34.3 °F 30.1 in West 5.8 mph 5.8 mph 62 % 0 in open2300-1.11 W/m2
10:12 49.8 °F 39.7 °F 30.1 in WNW 2.6 mph 9.0 mph 68 % 0 in open2300-1.11 W/m2
11:12 52.2 °F 41.5 °F 30.1 in NNW 12.6 mph 12.6 mph 67 % 0 in open2300-1.11 W/m2
12:12 53.2 °F 42.1 °F 30.1 in NW 5.0 mph 5.5 mph 66 % 0 in open2300-1.11 W/m2
13:12 54.3 °F 42.3 °F 30 in Calm   20.6 mph 64 % 0 in open2300-1.11 W/m2
14:12 54 °F 42.4 °F 30 in WNW 26.2 mph 31.7 mph 65 % 0 in open2300-1.11 W/m2
15:12 55.2 °F 43.5 °F 30 in NW 9.3 mph 9.3 mph 65 % 0 in open2300-1.11 W/m2
16:12 54.3 °F 43.5 °F 30 in WNW 10.8 mph 11.6 mph 67 % 0 in open2300-1.11 W/m2
17:12 53.4 °F 43.5 °F 30 in WSW 4.7 mph 13.4 mph 69 % 0 in open2300-1.11 W/m2
18:12 52.9 °F 43.2 °F 30 in Calm   6.8 mph 70 % 0 in open2300-1.11 W/m2
19:12 52.5 °F 43.9 °F 30 in Calm     72 % 0 in open2300-1.11 W/m2
20:12 52.5 °F 44.4 °F 30 in SSE 1.4 mph 5.0 mph 74 % 0 in open2300-1.11 W/m2
21:12 52.3 °F 44.1 °F 29.9 in Calm     73 % 0 in open2300-1.11 W/m2
22:12 51.8 °F 42.8 °F 29.9 in Calm   1.8 mph 71 % 0 in open2300-1.11 W/m2
23:12 51.8 °F 42.4 °F 29.9 in West 4.0 mph 9.3 mph 70 % 0 in open2300-1.11 W/m2
Observations météo à CASSIS
WU-History script by Weather Underground - 1 mb